Jewell, Iowa
Current Conditions -  °F | °C
As of 9:35 PM on Saturday 22 Nov 2014 (Local Time) from KEBS Reporting Station
Overcast Overcast  
Wind Chill: 54°   Ceiling: 900
Heat Index: 54°   Visibility: 10mi
Dew Point: 52°   Wind: 20mph
Humidity: 94%   Direction: 190°S
Pressure: 29.58"   Gusts: NA
Location:  42.31°N, 93.64°W
Report Text: KEBS 230335Z AUTO 19017KT 10SM OVC009 12/11 A2958 RMK AO2
Loading
Personal Weather Stations






























Interactive Weather Map New forecast layout! Learn more

10-Day Weather Forecast

Advertisements
Track Severe Weather on mobile